Ida — C4CZ2 — position and weather

sailwx.info

Track history (hours):
 
Tides and Currents Weather Stations Pressure Air Temp Water Temp Dewpoint Dewpoint Depression Visibility Wind Speed Wind Dir Waves Ship Positions

Ida

Last reported at 2015-Apr-19 15:32 UTC. Time now 2015-Apr-19 15:39 UTC.
Position N 54°43' E 012°31'.

Length 82 m; draft 4 m.

Type: Cargo ship. MMSI: 210319000.

Date/timePositionNaut miles runAvg speedWind from/ knotsBaromVisibWave heightAir tempDewpointWater temp
2015-Apr-19 15:32N 54°43' E 012°31'9 9.4
2015-Apr-19 14:33N 54°48' E 012°44'30 9.5
2015-Apr-19 11:25N 54°58' E 013°33'9 9.7
2015-Apr-19 10:31N 55°01' E 013°47'422 9.2
2015-Apr-17 12:28N 59°39' E 023°36'85 9.3
2015-Apr-17 03:22N 60°08' E 026°15'8 9.3
2015-Apr-17 02:33N 60°13' E 026°24'9 9.4
2015-Apr-17 01:33N 60°20' E 026°37'9 9.4
2015-Apr-17 00:34N 60°25' E 026°54'8 8.0
2015-Apr-16 23:34N 60°29' E 027°07'2 0.1
2015-Apr-15 19:34N 60°31' E 027°10'9 9.4
2015-Apr-15 18:34N 60°22' E 027°05'10 9.7
2015-Apr-15 17:34N 60°22' E 026°45'10 9.8
2015-Apr-15 16:34N 60°16' E 026°30'9 9.3
2015-Apr-15 15:34N 60°09' E 026°19'58 9.0
2015-Apr-15 09:12N 59°45' E 024°34'6 9.6
2015-Apr-15 08:33N 59°44' E 024°22'20 9.4
2015-Apr-15 06:26N 59°40' E 023°44'8 9.6
2015-Apr-15 05:33N 59°39' E 023°27'50 9.6
2015-Apr-15 00:23N 59°35' E 021°49'9 9.7
2015-Apr-14 23:29N 59°35' E 021°32'  
Track history (hours):
 
Tides and Currents Weather Stations Pressure Air Temp Water Temp Dewpoint Dewpoint Depression Visibility Wind Speed Wind Dir Waves Ship Positions

Ida

Last reported at 2015-Apr-19 15:32 UTC. Time now 2015-Apr-19 15:39 UTC.
Position N 54°43' E 012°31'.

Length 82 m; draft 4 m.

Type: Cargo ship. MMSI: 210319000.

Date/timePositionNaut miles runAvg speedWind from/ knotsBaromVisibWave heightAir tempDewpointWater temp
2015-Apr-19 15:32N 54°43' E 012°31'9 9.4
2015-Apr-19 14:33N 54°48' E 012°44'30 9.5
2015-Apr-19 11:25N 54°58' E 013°33'9 9.7
2015-Apr-19 10:31N 55°01' E 013°47'422 9.2
2015-Apr-17 12:28N 59°39' E 023°36'85 9.3
2015-Apr-17 03:22N 60°08' E 026°15'8 9.3
2015-Apr-17 02:33N 60°13' E 026°24'9 9.4
2015-Apr-17 01:33N 60°20' E 026°37'9 9.4
2015-Apr-17 00:34N 60°25' E 026°54'8 8.0
2015-Apr-16 23:34N 60°29' E 027°07'2 0.1
2015-Apr-15 19:34N 60°31' E 027°10'9 9.4
2015-Apr-15 18:34N 60°22' E 027°05'10 9.7
2015-Apr-15 17:34N 60°22' E 026°45'10 9.8
2015-Apr-15 16:34N 60°16' E 026°30'9 9.3
2015-Apr-15 15:34N 60°09' E 026°19'58 9.0
2015-Apr-15 09:12N 59°45' E 024°34'6 9.6
2015-Apr-15 08:33N 59°44' E 024°22'20 9.4
2015-Apr-15 06:26N 59°40' E 023°44'8 9.6
2015-Apr-15 05:33N 59°39' E 023°27'50 9.6
2015-Apr-15 00:23N 59°35' E 021°49'9 9.7
2015-Apr-14 23:29N 59°35' E 021°32'  

Dump ship's entire track history